Time;durP1;ratioP1;P1;durP2;ratioP2;P2;SDS_P1;SDS_P2;PMS_P1;PMS_P2;Temp;Humidity;BMP_temperature;BMP_pressure;BME280_temperature;BME280_humidity;BME280_pressure;Samples;Min_cycle;Max_cycle;Signal;HPM_P1;HPM_P2
2022/09/08 00:01:18;;;;;;;16.73;10.18;;;;;;;7.79;100.00;101368.69;1744765;81;21033;-75
2022/09/08 00:03:46;;;;;;;29.10;10.43;;;;;;;7.72;100.00;101373.50;1746616;81;21044;-76
2022/09/08 00:06:16;;;;;;;19.37;11.33;;;;;;;7.77;100.00;101374.28;1748278;81;21021;-76
2022/09/08 00:08:45;;;;;;;20.05;11.03;;;;;;;7.73;100.00;101372.65;1711107;83;21079;-76
2022/09/08 00:11:26;;;;;;;16.75;10.58;;;;;;;7.73;100.00;101373.93;1749450;81;21077;-76
2022/09/08 00:13:53;;;;;;;21.30;10.85;;;;;;;7.73;100.00;101372.65;1748229;81;21083;-76
2022/09/08 00:16:20;;;;;;;21.87;10.45;;;;;;;7.71;100.00;101375.67;1747815;81;21064;-76
2022/09/08 00:18:52;;;;;;;21.55;10.48;;;;;;;7.72;100.00;101371.39;1710583;83;21584;-76
2022/09/08 00:21:23;;;;;;;17.85;10.38;;;;;;;7.68;100.00;101370.59;1747486;81;21049;-77
2022/09/08 00:23:51;;;;;;;20.85;10.85;;;;;;;7.65;100.00;101371.11;1701722;84;20989;-76
2022/09/08 00:26:20;;;;;;;17.57;9.93;;;;;;;7.60;100.00;101368.61;1745409;81;21104;-76
2022/09/08 00:28:48;;;;;;;18.73;10.10;;;;;;;7.51;100.00;101366.22;1747838;81;21064;-75
2022/09/08 00:31:16;;;;;;;17.10;9.75;;;;;;;7.51;100.00;101363.66;1710763;83;21047;-76
2022/09/08 00:33:45;;;;;;;17.65;10.10;;;;;;;7.50;100.00;101365.39;1748232;81;21059;-76
2022/09/08 00:36:15;;;;;;;18.20;10.25;;;;;;;7.44;100.00;101360.38;1710651;84;21483;-76
2022/09/08 00:38:46;;;;;;;19.30;9.98;;;;;;;7.39;100.00;101348.91;1749454;81;21056;-77
2022/09/08 00:41:13;;;;;;;21.50;10.25;;;;;;;7.43;100.00;101353.09;1746259;81;21063;-76
2022/09/08 00:43:43;;;;;;;18.15;9.98;;;;;;;7.47;100.00;101355.63;1743984;81;21052;-76
2022/09/08 00:46:22;;;;;;;19.60;10.10;;;;;;;7.42;100.00;101353.98;1748174;81;21024;-76
2022/09/08 00:49:04;;;;;;;15.08;9.85;;;;;;;7.44;100.00;101359.09;1748052;81;21037;-75
2022/09/08 00:51:33;;;;;;;18.00;9.63;;;;;;;7.35;100.00;101348.55;1747774;81;21048;-76
2022/09/08 00:54:01;;;;;;;16.20;9.88;;;;;;;7.36;100.00;101358.34;1747290;81;21066;-76
2022/09/08 00:56:29;;;;;;;17.35;9.90;;;;;;;7.34;100.00;101349.44;1747145;81;21028;-77
2022/09/08 00:58:57;;;;;;;18.45;9.85;;;;;;;7.38;100.00;101348.51;1749009;82;21019;-76
2022/09/08 01:01:24;;;;;;;16.50;9.95;;;;;;;7.34;100.00;101353.27;1744679;81;21009;-76
2022/09/08 01:03:51;;;;;;;16.17;9.83;;;;;;;7.25;100.00;101351.30;1748375;81;21527;-76
2022/09/08 01:12:44;;;;;;;15.30;9.38;;;;;;;7.10;100.00;101347.28;1748872;81;21004;-76
2022/09/08 01:15:19;;;;;;;15.45;9.63;;;;;;;7.14;100.00;101346.36;1749524;81;21091;-76
2022/09/08 01:17:49;;;;;;;18.55;9.85;;;;;;;7.10;100.00;101350.69;1748377;81;21504;-77
2022/09/08 01:20:20;;;;;;;15.00;9.58;;;;;;;7.01;100.00;101351.69;1748417;81;21609;-76
2022/09/08 01:23:25;;;;;;;18.57;10.53;;;;;;;6.85;100.00;101344.25;1748201;81;21083;-76
2022/09/08 01:26:32;;;;;;;15.85;9.55;;;;;;;6.73;100.00;101341.02;1723636;81;21099;-75
2022/09/08 01:29:02;;;;;;;16.12;9.40;;;;;;;6.79;100.00;101344.77;1749123;81;21041;-76
2022/09/08 01:31:36;;;;;;;20.37;8.98;;;;;;;6.76;100.00;101346.08;1748969;82;20992;-75
2022/09/08 01:34:03;;;;;;;14.10;8.80;;;;;;;6.79;100.00;101344.77;1749025;81;21122;-76
2022/09/08 01:36:30;;;;;;;16.67;8.73;;;;;;;6.81;100.00;101344.72;1748712;82;21095;-76
2022/09/08 01:38:57;;;;;;;14.87;8.28;;;;;;;6.79;100.00;101346.45;1749809;81;21522;-75
2022/09/08 01:41:24;;;;;;;13.98;8.30;;;;;;;6.77;100.00;101342.66;1747126;81;21349;-76
2022/09/08 01:43:51;;;;;;;16.60;8.38;;;;;;;6.70;100.00;101333.81;1740346;82;21090;-76
2022/09/08 01:46:18;;;;;;;14.15;7.85;;;;;;;6.69;100.00;101334.25;1749523;81;21042;-75
2022/09/08 01:48:45;;;;;;;15.53;8.48;;;;;;;6.62;100.00;101335.20;1746515;81;21046;-76
2022/09/08 01:51:12;;;;;;;14.18;8.35;;;;;;;6.56;100.00;101330.17;1747640;81;21465;-75
2022/09/08 01:53:39;;;;;;;17.57;8.88;;;;;;;6.62;100.00;101330.92;1749343;81;21511;-75
2022/09/08 01:56:07;;;;;;;14.38;8.90;;;;;;;6.63;100.00;101327.95;1746109;81;21012;-76
2022/09/08 01:58:36;;;;;;;14.15;8.83;;;;;;;6.67;100.00;101323.61;1746289;82;21072;-77
2022/09/08 02:01:04;;;;;;;17.37;8.60;;;;;;;6.66;100.00;101318.94;1747451;81;21042;-77
2022/09/08 02:03:32;;;;;;;16.80;8.80;;;;;;;6.67;100.00;101318.08;1748922;81;21032;-75
2022/09/08 02:06:02;;;;;;;15.10;8.38;;;;;;;6.70;100.00;101317.18;1747708;81;21109;-76
2022/09/08 02:08:30;;;;;;;14.98;8.70;;;;;;;6.71;100.00;101319.73;1747572;81;21076;-76
2022/09/08 02:10:59;;;;;;;15.65;8.90;;;;;;;6.78;100.00;101318.75;1746331;81;21518;-74
2022/09/08 02:13:27;;;;;;;21.97;9.40;;;;;;;6.74;100.00;101316.27;1747133;81;21024;-76
2022/09/08 02:16:00;;;;;;;15.48;9.90;;;;;;;6.73;100.00;101319.67;1748017;82;21111;-76
2022/09/08 02:18:30;;;;;;;18.98;10.78;;;;;;;6.66;100.00;101320.66;1747242;81;21053;-76
2022/09/08 02:21:16;;;;;;;20.75;11.73;;;;;;;6.49;100.00;101315.77;1747402;81;21567;-76
2022/09/08 02:23:46;;;;;;;21.33;11.12;;;;;;;6.52;100.00;101320.41;1747295;81;21075;-75
2022/09/08 02:26:21;;;;;;;16.65;11.22;;;;;;;6.57;100.00;101321.64;1746315;81;21559;-75
2022/09/08 02:28:51;;;;;;;18.70;11.63;;;;;;;6.51;100.00;101317.45;1744193;81;21091;-75
2022/09/08 02:31:18;;;;;;;19.48;10.63;;;;;;;6.58;100.00;101316.92;1707651;84;21030;-76
2022/09/08 02:33:45;;;;;;;18.17;11.28;;;;;;;6.66;100.00;101320.66;1746058;81;21027;-75
2022/09/08 02:36:13;;;;;;;18.02;11.75;;;;;;;6.68;100.00;101316.36;1706319;83;21078;-76
2022/09/08 02:38:41;;;;;;;17.20;11.40;;;;;;;6.65;100.00;101315.11;1711715;83;21035;-76
2022/09/08 02:41:09;;;;;;;22.07;12.82;;;;;;;6.68;100.00;101311.24;1719885;83;21024;-75
2022/09/08 02:43:36;;;;;;;18.23;11.88;;;;;;;6.72;100.00;101309.88;1710723;83;21063;-75
2022/09/08 02:46:06;;;;;;;19.15;12.00;;;;;;;6.74;100.00;101317.55;1721429;83;21083;-75
2022/09/08 02:48:35;;;;;;;20.23;12.47;;;;;;;6.72;100.00;101315.00;1712845;83;21196;-76
2022/09/08 02:51:05;;;;;;;19.92;11.85;;;;;;;6.70;100.00;101310.34;1717053;83;21079;-76
2022/09/08 02:53:33;;;;;;;21.75;11.33;;;;;;;6.71;100.00;101314.61;1717468;83;21040;-77
2022/09/08 02:56:02;;;;;;;19.37;11.78;;;;;;;6.73;100.00;101308.16;1712380;83;21548;-76
2022/09/08 02:58:29;;;;;;;15.10;10.48;;;;;;;6.67;100.00;101309.13;1717413;83;21040;-77
2022/09/08 03:00:56;;;;;;;20.20;11.08;;;;;;;6.63;100.00;101312.60;1714277;83;21041;-75
2022/09/08 03:03:24;;;;;;;20.32;11.30;;;;;;;6.55;100.00;101303.75;1684594;84;21017;-76
2022/09/08 03:05:52;;;;;;;20.80;10.65;;;;;;;6.58;100.00;101306.25;1716093;83;21079;-76
2022/09/08 03:08:21;;;;;;;16.20;10.35;;;;;;;6.62;100.00;101302.78;1700147;83;21041;-75
2022/09/08 03:10:48;;;;;;;15.75;10.48;;;;;;;6.68;100.00;101297.17;1688455;84;21564;-76
2022/09/08 03:13:17;;;;;;;17.95;10.88;;;;;;;6.67;100.00;101298.02;1731953;82;21078;-76
2022/09/08 03:15:44;;;;;;;16.02;10.10;;;;;;;6.67;100.00;101300.58;1742742;82;21047;-76
2022/09/08 03:18:13;;;;;;;16.57;10.10;;;;;;;6.62;100.00;101299.38;1740261;82;21043;-76
2022/09/08 03:20:42;;;;;;;16.70;9.83;;;;;;;6.57;100.00;101302.02;1737353;82;21038;-75
2022/09/08 03:23:19;;;;;;;16.37;9.58;;;;;;;6.52;100.00;101303.78;1743622;82;21044;-76
2022/09/08 03:25:49;;;;;;;13.50;9.08;;;;;;;6.45;100.00;101296.22;1730098;82;21076;-76
2022/09/08 03:28:24;;;;;;;14.28;9.43;;;;;;;6.44;100.00;101290.70;1741494;82;21071;-76
2022/09/08 03:30:51;;;;;;;16.73;8.88;;;;;;;6.44;100.00;101290.70;1736530;82;21087;-76
2022/09/08 03:33:18;;;;;;;15.40;9.18;;;;;;;6.43;100.00;101302.66;1739058;82;21032;-75
2022/09/08 03:35:49;;;;;;;12.23;7.65;;;;;;;6.46;100.00;101310.70;1738730;82;21051;-76
2022/09/08 03:38:17;;;;;;;15.72;8.03;;;;;;;6.45;100.00;101306.03;1736550;82;21040;-76
2022/09/08 03:40:45;;;;;;;15.53;8.20;;;;;;;6.50;100.00;101306.80;1735897;82;21022;-76
2022/09/08 03:43:13;;;;;;;14.65;8.88;;;;;;;6.56;100.00;101307.98;1739345;82;21004;-76
2022/09/08 03:45:43;;;;;;;10.98;7.72;;;;;;;6.64;100.00;101305.77;1737172;82;21043;-76
2022/09/08 03:48:12;;;;;;;14.47;7.72;;;;;;;6.62;100.00;101307.89;1741759;82;21039;-76
2022/09/08 03:50:40;;;;;;;11.45;7.78;;;;;;;6.53;100.00;101309.73;1738853;82;21059;-75
2022/09/08 03:53:07;;;;;;;17.05;7.40;;;;;;;6.58;100.00;101304.97;1737464;82;21043;-77
2022/09/08 03:55:34;;;;;;;12.78;7.65;;;;;;;6.61;100.00;101307.50;1742341;82;21044;-77
2022/09/08 03:58:01;;;;;;;11.93;7.67;;;;;;;6.75;100.00;101310.27;1737192;82;21227;-76
2022/09/08 04:00:30;;;;;;;13.85;7.80;;;;;;;6.70;100.00;101312.06;1736496;82;21137;-76
2022/09/08 04:02:57;;;;;;;12.13;8.10;;;;;;;6.77;100.00;101311.09;1738068;82;20996;-76
2022/09/08 04:05:25;;;;;;;14.70;9.10;;;;;;;6.76;100.00;101313.25;1750797;81;21038;-77
2022/09/08 04:07:52;;;;;;;15.53;9.30;;;;;;;6.76;100.00;101317.09;1744137;81;21020;-77
2022/09/08 04:10:19;;;;;;;18.40;9.45;;;;;;;6.82;100.00;101308.88;1742623;81;21033;-77
2022/09/08 04:12:47;;;;;;;15.98;9.80;;;;;;;6.89;100.00;101309.61;1746286;81;21003;-77
2022/09/08 04:15:15;;;;;;;16.27;9.58;;;;;;;6.80;100.00;101309.77;1747892;81;21583;-77
2022/09/08 04:17:43;;;;;;;18.98;10.05;;;;;;;6.94;100.00;101311.68;1748935;81;21005;-76
2022/09/08 04:20:13;;;;;;;18.65;10.75;;;;;;;7.09;100.00;101302.05;1741627;81;21029;-77
2022/09/08 04:22:40;;;;;;;19.05;10.50;;;;;;;7.13;100.00;101307.53;1743854;81;20996;-76
2022/09/08 04:25:08;;;;;;;19.70;11.10;;;;;;;7.26;100.00;101305.59;1743023;82;21105;-77
2022/09/08 04:27:36;;;;;;;17.70;12.03;;;;;;;7.34;100.00;101311.02;1709894;83;21062;-77
2022/09/08 04:30:04;;;;;;;21.65;10.72;;;;;;;7.42;100.00;101312.13;1715615;83;20995;-76
2022/09/08 04:32:34;;;;;;;20.30;11.70;;;;;;;7.50;100.00;101312.00;1744787;81;21628;-77
2022/09/08 04:35:01;;;;;;;20.60;12.33;;;;;;;7.60;100.00;101313.10;1742257;81;21029;-75
2022/09/08 04:37:28;;;;;;;19.20;11.83;;;;;;;7.72;100.00;101315.84;1709773;82;21016;-76
2022/09/08 04:39:56;;;;;;;19.15;11.45;;;;;;;7.85;100.00;101318.16;1738785;81;21022;-76
2022/09/08 04:42:23;;;;;;;20.77;11.57;;;;;;;8.00;100.00;101311.46;1749794;81;21080;-77
2022/09/08 04:44:50;;;;;;;20.48;11.68;;;;;;;8.19;100.00;101318.32;1748342;80;21637;-76
2022/09/08 04:47:17;;;;;;;18.15;12.23;;;;;;;8.34;100.00;101318.01;1753050;81;21018;-75
2022/09/08 04:49:44;;;;;;;21.87;11.93;;;;;;;8.44;100.00;101322.98;1706565;83;21070;-75
2022/09/08 04:52:11;;;;;;;18.90;11.97;;;;;;;8.57;100.00;101316.67;1668646;86;21066;-75
2022/09/08 04:54:38;;;;;;;19.73;11.38;;;;;;;8.69;100.00;101319.41;1673818;84;21063;-77
2022/09/08 04:57:05;;;;;;;21.23;12.45;;;;;;;8.86;100.00;101321.56;1689119;84;21043;-77
2022/09/08 04:59:32;;;;;;;19.80;11.90;;;;;;;8.99;100.00;101323.81;1736198;82;21046;-76
2022/09/08 05:02:00;;;;;;;21.85;12.05;;;;;;;9.17;100.00;101325.53;1722605;82;21070;-77
2022/09/08 05:04:26;;;;;;;21.15;11.45;;;;;;;9.34;100.00;101320.79;1735585;82;21041;-77
2022/09/08 05:06:53;;;;;;;21.45;12.30;;;;;;;9.51;100.00;101320.78;1737499;81;21100;-77
2022/09/08 05:09:21;;;;;;;20.75;12.30;;;;;;;9.67;100.00;101319.94;1740338;82;21031;-77
2022/09/08 05:11:47;;;;;;;20.12;12.07;;;;;;;9.81;100.00;101319.98;1741863;82;21536;-77
2022/09/08 05:14:15;;;;;;;23.07;12.15;;;;;;;9.94;100.00;101312.75;1737487;82;21028;-77
2022/09/08 05:16:42;;;;;;;18.42;11.33;;;;;;;10.11;100.00;101319.14;1738797;82;21607;-76
2022/09/08 05:19:12;;;;;;;28.75;13.10;;;;;;;10.29;100.00;101316.02;1738671;82;21071;-76
2022/09/08 05:21:40;;;;;;;24.25;12.68;;;;;;;10.48;100.00;101311.17;1737383;82;21519;-76
2022/09/08 05:24:06;;;;;;;21.68;12.55;;;;;;;10.67;100.00;101313.20;1739095;82;21071;-77
2022/09/08 05:26:34;;;;;;;21.30;12.80;;;;;;;10.84;100.00;101312.20;1738798;82;21114;-76
2022/09/08 05:29:03;;;;;;;23.50;13.00;;;;;;;10.98;100.00;101307.44;1736833;82;21047;-77
2022/09/08 05:31:31;;;;;;;20.10;12.45;;;;;;;11.14;100.00;101305.20;1727962;82;21067;-77
2022/09/08 05:33:59;;;;;;;17.82;11.38;;;;;;;11.40;100.00;101304.77;1739838;82;21066;-76
2022/09/08 05:36:30;;;;;;;17.05;11.73;;;;;;;11.62;100.00;101306.98;1738982;82;21079;-77
2022/09/08 05:38:56;;;;;;;19.00;11.65;;;;;;;11.82;100.00;101301.11;1731017;82;21066;-77
2022/09/08 05:41:24;;;;;;;19.48;11.28;;;;;;;12.01;100.00;101300.45;1739856;82;21008;-76
2022/09/08 05:43:53;;;;;;;23.10;12.05;;;;;;;12.20;100.00;101302.72;1719324;82;21016;-76
2022/09/08 05:46:20;;;;;;;17.40;11.57;;;;;;;12.36;100.00;101302.97;1731482;82;21039;-76
2022/09/08 05:48:47;;;;;;;18.25;11.48;;;;;;;12.55;100.00;101302.25;1743701;81;21501;-75
2022/09/08 05:51:20;;;;;;;21.15;11.08;;;;;;;12.75;100.00;101298.44;1747151;81;21027;-76
2022/09/08 05:53:48;;;;;;;17.93;10.37;;;;;;;12.96;100.00;101299.30;1749151;81;20987;-76
2022/09/08 05:56:18;;;;;;;17.52;11.05;;;;;;;13.13;100.00;101302.92;1752906;81;21532;-77
2022/09/08 05:58:59;;;;;;;17.32;10.38;;;;;;;13.34;100.00;101305.94;1711441;83;21085;-77
2022/09/08 06:01:30;;;;;;;18.45;9.93;;;;;;;13.53;100.00;101307.72;1735234;82;20997;-76
2022/09/08 06:03:59;;;;;;;19.27;9.53;;;;;;;13.78;100.00;101305.70;1744542;81;21068;-76
2022/09/08 06:06:27;;;;;;;16.80;9.33;;;;;;;13.98;100.00;101306.57;1746609;81;20964;-77
2022/09/08 06:08:54;;;;;;;14.20;9.10;;;;;;;14.15;100.00;101305.78;1750145;81;21529;-76
2022/09/08 06:11:23;;;;;;;16.62;9.50;;;;;;;14.35;100.00;101309.58;1747944;81;21096;-77
2022/09/08 06:13:51;;;;;;;18.15;9.05;;;;;;;14.55;100.00;101310.39;1736585;82;21484;-76
2022/09/08 06:16:19;;;;;;;14.90;9.30;;;;;;;14.73;100.00;101306.94;1743830;81;21075;-77
2022/09/08 06:18:47;;;;;;;14.87;8.58;;;;;;;14.93;100.00;101307.27;1708615;83;21581;-76
2022/09/08 06:21:18;;;;;;;13.90;7.47;;;;;;;15.11;100.00;101298.20;1747062;81;20966;-77
2022/09/08 06:23:51;;;;;;;12.35;7.62;;;;;;;15.25;100.00;101293.14;1712979;82;21053;-76
2022/09/08 06:26:54;;;;;;;15.75;7.67;;;;;;;15.55;100.00;101298.51;1747249;81;21500;-77
2022/09/08 06:29:35;;;;;;;12.20;7.47;;;;;;;15.82;99.15;101296.70;1711980;82;21015;-76
2022/09/08 06:32:13;;;;;;;10.03;6.92;;;;;;;16.12;96.48;101308.48;1672522;85;21588;-77
2022/09/08 06:34:45;;;;;;;13.88;7.35;;;;;;;16.33;94.81;101299.95;1751085;81;21344;-77
2022/09/08 06:37:38;;;;;;;14.35;7.00;;;;;;;16.53;94.30;101295.42;1746245;81;21500;-76
2022/09/08 06:40:16;;;;;;;14.60;7.30;;;;;;;16.74;94.53;101294.65;1744863;81;21092;-77
2022/09/08 06:42:57;;;;;;;13.62;6.97;;;;;;;16.83;93.33;101294.16;1746414;81;21021;-77
2022/09/08 06:45:32;;;;;;;10.95;6.30;;;;;;;17.17;90.38;101298.23;1747810;81;21528;-77
2022/09/08 06:48:17;;;;;;;14.15;6.00;;;;;;;17.39;89.19;101295.63;1751493;80;20960;-77
2022/09/08 06:51:31;;;;;;;10.28;5.97;;;;;;;17.54;88.04;101296.02;1751388;81;21032;-77
2022/09/08 06:54:38;;;;;;;8.40;4.75;;;;;;;17.77;86.42;101295.89;1742398;81;21537;-77
2022/09/08 06:57:20;;;;;;;13.60;4.75;;;;;;;18.01;82.57;101292.73;1719538;82;21526;-77
2022/09/08 07:00:18;;;;;;;7.20;4.37;;;;;;;18.28;79.55;101303.64;1748174;81;20977;-77
2022/09/08 07:03:03;;;;;;;6.85;4.33;;;;;;;18.46;78.91;101300.33;1752497;81;21001;-76
2022/09/08 07:05:41;;;;;;;6.97;4.25;;;;;;;18.51;77.38;101301.70;1747325;81;21065;-77
2022/09/08 07:08:29;;;;;;;6.95;4.30;;;;;;;18.71;76.97;101312.59;1751599;81;21006;-78
2022/09/08 07:11:25;;;;;;;6.97;4.25;;;;;;;18.90;75.42;101310.48;1713444;83;21567;-77
2022/09/08 07:14:09;;;;;;;7.83;4.62;;;;;;;19.00;74.03;101313.33;1682560;84;21016;-77
2022/09/08 07:16:54;;;;;;;9.70;4.35;;;;;;;19.12;73.73;101305.98;1692347;83;21060;-76
2022/09/08 07:19:49;;;;;;;7.72;4.85;;;;;;;19.29;72.99;101303.52;1665001;83;21001;-76
2022/09/08 07:22:57;;;;;;;8.18;4.55;;;;;;;19.47;71.55;101307.95;1689223;83;21535;-76
2022/09/08 07:25:57;;;;;;;8.35;4.60;;;;;;;19.76;72.16;101298.59;1689676;83;21055;-76
2022/09/08 07:28:35;;;;;;;11.90;5.12;;;;;;;19.92;69.34;101302.27;1692007;84;21533;-76
2022/09/08 07:31:05;;;;;;;11.63;4.78;;;;;;;20.08;69.40;101298.09;1674599;84;21130;-76
2022/09/08 07:33:39;;;;;;;7.42;4.72;;;;;;;20.27;66.76;101295.80;1745364;81;21086;-76
2022/09/08 07:36:38;;;;;;;11.00;5.03;;;;;;;20.36;67.31;101299.06;1747441;81;21039;-76
2022/09/08 07:39:21;;;;;;;13.40;5.03;;;;;;;20.44;65.20;101294.59;1747100;81;21018;-78
2022/09/08 07:41:53;;;;;;;8.98;5.10;;;;;;;20.56;65.65;101287.16;1745888;81;21076;-77
2022/09/08 07:44:21;;;;;;;7.60;4.58;;;;;;;20.64;64.26;101296.23;1752851;81;20988;-76
2022/09/08 07:47:14;;;;;;;9.03;4.92;;;;;;;20.62;64.49;101298.98;1749190;81;21003;-77
2022/09/08 07:50:04;;;;;;;9.80;4.93;;;;;;;20.70;64.49;101298.39;1746620;81;21004;-77
2022/09/08 07:53:02;;;;;;;8.95;4.87;;;;;;;20.80;64.66;101299.37;1741190;81;21011;-75
2022/09/08 07:55:42;;;;;;;10.53;5.40;;;;;;;20.79;63.57;101293.31;1734919;82;21032;-77
2022/09/08 07:58:34;;;;;;;7.67;5.40;;;;;;;20.87;62.49;101287.98;1722082;82;20995;-77
2022/09/08 08:01:34;;;;;;;9.98;5.67;;;;;;;20.94;63.28;101282.64;1707684;82;21465;-77
2022/09/08 08:04:10;;;;;;;9.50;5.47;;;;;;;21.08;60.62;101278.98;1734973;82;21571;-78
2022/09/08 08:06:55;;;;;;;9.23;4.85;;;;;;;21.24;59.59;101283.39;1733850;82;21070;-77
2022/09/08 08:10:06;;;;;;;10.20;5.58;;;;;;;21.25;59.77;101278.53;1748848;81;21484;-77
2022/09/08 08:12:46;;;;;;;9.13;4.87;;;;;;;21.22;58.63;101268.27;1713097;82;21548;-77
2022/09/08 08:15:25;;;;;;;8.63;5.20;;;;;;;21.54;60.73;101264.98;1746578;81;21076;-77
2022/09/08 08:18:03;;;;;;;12.93;5.00;;;;;;;21.70;60.59;101261.51;1742619;81;21489;-77
2022/09/08 08:20:53;;;;;;;9.83;4.90;;;;;;;21.75;58.04;101258.03;1744438;81;21070;-77
2022/09/08 08:23:40;;;;;;;9.18;5.25;;;;;;;21.89;58.25;101254.80;1744844;81;21582;-79
2022/09/08 08:26:42;;;;;;;11.45;5.20;;;;;;;21.91;55.17;101260.75;1747742;80;21366;-76
2022/09/08 08:29:35;;;;;;;10.10;4.95;;;;;;;21.94;54.69;101259.20;1720163;82;21080;-77
2022/09/08 08:32:21;;;;;;;9.60;4.72;;;;;;;21.90;53.15;101253.38;1758317;81;21004;-78
2022/09/08 08:35:29;;;;;;;6.37;4.20;;;;;;;21.82;52.29;101257.08;1746805;81;21056;-77
2022/09/08 08:37:56;;;;;;;8.10;4.45;;;;;;;21.95;53.88;101256.44;1744870;81;21600;-78
2022/09/08 08:40:56;;;;;;;7.25;4.67;;;;;;;21.94;52.62;101250.86;1732856;82;21051;-77
2022/09/08 08:43:34;;;;;;;7.17;4.40;;;;;;;22.00;52.87;101252.16;1745716;81;21039;-77
2022/09/08 08:46:27;;;;;;;7.03;4.20;;;;;;;22.06;50.88;101250.35;1723718;81;20999;-77
2022/09/08 08:49:27;;;;;;;7.87;4.37;;;;;;;21.90;50.05;101255.16;1745970;81;21051;-77
2022/09/08 08:52:21;;;;;;;6.80;4.10;;;;;;;22.11;51.10;101242.92;1743343;81;20976;-78
2022/09/08 08:55:04;;;;;;;;;;;;;;;22.25;51.64;101239.22;1746091;82;21012;-76
2022/09/08 08:58:00;;;;;;;6.40;4.58;;;;;;;22.26;52.03;101231.69;1747200;81;20195;-76
2022/09/08 09:00:47;;;;;;;10.23;4.40;;;;;;;22.31;50.52;101233.95;1744375;81;21032;-77
2022/09/08 09:03:37;;;;;;;6.62;4.50;;;;;;;22.39;50.37;101234.98;1750074;81;20993;-78
2022/09/08 09:06:36;;;;;;;4.60;4.08;;;;;;;22.31;49.92;101227.39;1744745;81;21004;-76
2022/09/08 09:09:29;;;;;;;6.97;4.25;;;;;;;22.33;49.42;101224.98;1749181;81;21543;-76
2022/09/08 09:12:32;;;;;;;8.27;3.93;;;;;;;22.47;49.97;101225.65;1724336;81;21008;-79
2022/09/08 09:15:50;;;;;;;6.95;4.20;;;;;;;22.51;50.48;101227.88;1691576;82;21549;-77
2022/09/08 09:19:05;;;;;;;6.55;3.70;;;;;;;22.69;51.57;101218.10;1681805;84;21036;-76
2022/09/08 09:21:58;;;;;;;5.83;3.85;;;;;;;22.67;49.62;101220.88;1751471;81;21075;-77
2022/09/08 09:24:34;;;;;;;6.85;3.95;;;;;;;22.63;47.28;101219.93;1705284;81;21259;-77
2022/09/08 09:27:05;;;;;;;5.80;4.42;;;;;;;22.65;48.49;101224.57;1712903;82;21080;-77
2022/09/08 09:29:37;;;;;;;8.53;4.50;;;;;;;22.68;48.19;101219.08;1741970;82;21488;-76
2022/09/08 09:32:25;;;;;;;8.25;4.15;;;;;;;22.69;47.74;101216.79;1711136;83;21169;-76
2022/09/08 09:35:20;;;;;;;6.55;4.15;;;;;;;22.82;50.30;101216.61;1691844;83;20980;-78
2022/09/08 09:37:58;;;;;;;7.25;3.87;;;;;;;22.96;48.06;101224.14;1747025;81;20981;-78
2022/09/08 09:40:33;;;;;;;7.70;3.98;;;;;;;22.94;48.33;101225.58;1752479;80;20999;-77
2022/09/08 09:43:25;;;;;;;7.28;4.28;;;;;;;22.91;47.17;101225.85;1749833;81;21067;-76
2022/09/08 09:46:19;;;;;;;6.97;3.70;;;;;;;22.95;47.23;101216.75;1714357;82;20985;-77
2022/09/08 09:49:01;;;;;;;7.10;4.30;;;;;;;23.19;48.68;101226.13;1696566;83;21005;-76
2022/09/08 09:51:47;;;;;;;7.58;3.92;;;;;;;23.45;47.44;101221.73;1667279;83;21547;-77
2022/09/08 09:54:29;;;;;;;6.65;4.08;;;;;;;23.52;46.19;101226.32;1744843;81;20995;-78
2022/09/08 09:57:35;;;;;;;6.97;4.15;;;;;;;23.50;46.40;101223.45;1704182;81;21004;-77
2022/09/08 10:00:20;;;;;;;6.97;4.10;;;;;;;23.22;46.46;101227.67;1744317;82;20982;-78
2022/09/08 10:03:40;;;;;;;6.47;4.17;;;;;;;23.43;46.95;101223.17;1744900;81;21015;-77
2022/09/08 10:06:43;;;;;;;7.47;4.20;;;;;;;23.69;46.43;101226.14;1712610;82;21023;-77
2022/09/08 10:09:21;;;;;;;5.65;3.95;;;;;;;23.88;46.19;101228.48;1683269;84;21043;-74
2022/09/08 10:12:19;;;;;;;5.72;3.58;;;;;;;24.07;45.72;101230.28;1750397;81;21070;-77
2022/09/08 10:15:00;;;;;;;7.65;3.98;;;;;;;24.18;44.68;101230.16;1705711;82;21534;-77
2022/09/08 10:17:45;;;;;;;6.78;3.65;;;;;;;24.04;44.12;101236.66;1752520;81;21083;-76
2022/09/08 10:20:35;;;;;;;7.67;3.60;;;;;;;24.17;45.73;101225.88;1740139;81;21544;-78
2022/09/08 10:23:37;;;;;;;5.80;3.52;;;;;;;24.18;45.77;101223.58;1747569;81;21068;-78
2022/09/08 10:26:20;;;;;;;5.20;3.72;;;;;;;24.20;45.26;101220.33;1743510;81;21053;-76
2022/09/08 10:29:36;;;;;;;5.90;3.90;;;;;;;24.40;45.23;101222.45;1710576;82;21050;-77
2022/09/08 10:32:26;;;;;;;5.50;4.10;;;;;;;24.56;44.21;101216.16;1680693;85;21030;-78
2022/09/08 10:35:28;;;;;;;8.90;3.70;;;;;;;24.40;45.06;101227.72;1715310;82;21040;-76
2022/09/08 10:38:22;;;;;;;6.47;4.00;;;;;;;24.30;45.31;101220.33;1692878;83;21119;-76
2022/09/08 10:41:19;;;;;;;5.17;3.85;;;;;;;23.88;44.58;101224.53;1691816;83;21530;-76
2022/09/08 10:44:07;;;;;;;7.50;3.95;;;;;;;23.92;46.54;101222.80;1697799;83;21535;-77
2022/09/08 10:46:58;;;;;;;11.57;3.80;;;;;;;23.94;48.54;101227.92;1687811;83;21067;-76
2022/09/08 10:49:59;;;;;;;6.80;3.75;;;;;;;23.90;46.59;101226.54;1699547;83;21046;-77
2022/09/08 10:53:03;;;;;;;5.60;4.25;;;;;;;24.03;47.24;101225.80;1743905;82;21603;-77
2022/09/08 10:55:34;;;;;;;;;;;;;;;23.75;46.43;101230.85;1748414;81;21047;-77
2022/09/08 10:58:38;;;;;;;6.62;3.80;;;;;;;23.80;45.50;101235.72;1749765;81;20127;-76
2022/09/08 11:01:46;;;;;;;4.95;4.22;;;;;;;23.99;46.45;101230.99;1746000;81;21057;-78
2022/09/08 11:04:54;;;;;;;9.25;3.92;;;;;;;24.14;46.22;101228.77;1743877;81;21040;-77
2022/09/08 11:08:01;;;;;;;7.25;4.40;;;;;;;24.22;45.56;101229.40;1746681;81;21054;-77
2022/09/08 11:11:11;;;;;;;8.70;4.47;;;;;;;24.41;45.61;101224.10;1750556;81;21043;-76
2022/09/08 11:13:56;;;;;;;7.92;4.62;;;;;;;24.66;45.11;101228.48;1744145;81;22177;-77
2022/09/08 11:16:40;;;;;;;6.10;3.80;;;;;;;24.61;45.90;101228.06;1715393;82;21104;-78
2022/09/08 11:19:39;;;;;;;9.48;4.12;;;;;;;24.53;45.89;101226.98;1737291;82;21055;-77
2022/09/08 11:22:42;;;;;;;7.22;3.65;;;;;;;24.35;46.04;101226.84;1733954;82;21007;-77
2022/09/08 11:25:42;;;;;;;8.18;3.83;;;;;;;24.77;46.81;101226.48;1735552;82;21078;-77
2022/09/08 11:28:49;;;;;;;7.00;3.42;;;;;;;25.11;46.74;101215.92;1738611;82;21038;-78
2022/09/08 11:32:01;;;;;;;6.95;3.22;;;;;;;25.22;44.97;101214.92;1738246;81;20992;-77
2022/09/08 11:34:56;;;;;;;10.68;3.52;;;;;;;24.92;45.62;101221.61;1737033;82;21042;-77
2022/09/08 11:37:37;;;;;;;7.58;3.80;;;;;;;24.97;45.41;101211.45;1720257;81;21019;-77
2022/09/08 11:40:55;;;;;;;5.55;3.37;;;;;;;24.90;45.12;101210.86;1739106;82;21019;-77
2022/09/08 11:43:52;;;;;;;5.05;3.33;;;;;;;24.89;45.57;101213.16;1738868;82;21062;-78
2022/09/08 11:46:38;;;;;;;4.75;3.47;;;;;;;24.85;45.63;101214.42;1737355;82;21078;-79
2022/09/08 11:49:32;;;;;;;7.05;3.50;;;;;;;24.86;47.05;101217.39;1724581;82;21074;-78
2022/09/08 11:52:10;;;;;;;7.10;3.40;;;;;;;25.14;46.26;101216.94;1735818;82;21031;-78
2022/09/08 11:55:09;;;;;;;7.25;3.67;;;;;;;25.14;46.26;101216.94;1735319;81;21023;-77
2022/09/08 11:58:17;;;;;;;5.85;3.70;;;;;;;24.62;45.08;101216.08;1735735;82;21066;-77
2022/09/08 12:01:24;;;;;;;6.05;3.65;;;;;;;24.76;46.48;101214.31;1736504;81;21078;-77
2022/09/08 12:04:19;;;;;;;6.60;3.92;;;;;;;24.83;45.62;101212.42;1742276;81;21520;-78
2022/09/08 12:07:16;;;;;;;8.00;3.47;;;;;;;24.11;46.13;101206.22;1749267;81;21004;-77
2022/09/08 12:10:03;;;;;;;5.75;3.12;;;;;;;24.04;47.26;101215.61;1748968;81;21567;-78
2022/09/08 12:12:47;;;;;;;6.28;3.20;;;;;;;24.38;47.54;101212.56;1748628;81;21090;-78
2022/09/08 12:15:34;;;;;;;5.95;3.33;;;;;;;24.24;47.51;101214.30;1748890;82;21036;-78
2022/09/08 12:18:13;;;;;;;5.90;3.35;;;;;;;24.05;47.44;101212.03;1707678;83;21456;-79